createdAt,value
2022-09-20T00:01:25.021Z,7.08
2022-09-20T00:03:55.551Z,6.57
2022-09-20T00:06:28.319Z,6.98
2022-09-20T00:08:55.801Z,6.91
2022-09-20T00:11:24.426Z,6.88
2022-09-20T00:13:53.574Z,6.82
2022-09-20T00:16:24.322Z,6.23
2022-09-20T00:18:53.337Z,6.78
2022-09-20T00:21:22.842Z,6.81
2022-09-20T00:23:49.981Z,6.24
2022-09-20T00:26:16.608Z,6.62
2022-09-20T00:28:43.292Z,6.27
2022-09-20T00:31:11.563Z,6.68
2022-09-20T00:33:38.275Z,6.43
2022-09-20T00:36:04.978Z,6.56
2022-09-20T00:38:31.743Z,6.14
2022-09-20T00:40:58.305Z,6.77
2022-09-20T00:43:43.782Z,6.89
2022-09-20T00:46:22.689Z,6.85
2022-09-20T00:48:56.101Z,6.48
2022-09-20T00:51:32.523Z,6.54
2022-09-20T00:54:01.082Z,6.77
2022-09-20T00:56:38.833Z,6.76
2022-09-20T00:59:16.713Z,6.59
2022-09-20T01:01:46.461Z,6.72
2022-09-20T01:04:16.028Z,6.67
2022-09-20T01:06:46.252Z,6.73
2022-09-20T01:09:12.871Z,4.79
2022-09-20T01:11:40.996Z,6.26
2022-09-20T01:14:08.372Z,6.25
2022-09-20T01:16:37.390Z,5.88
2022-09-20T01:19:32.944Z,6.35
2022-09-20T01:22:04.262Z,6.19
2022-09-20T01:24:55.428Z,6.57
2022-09-20T01:27:34.196Z,6.80
2022-09-20T01:30:15.212Z,6.65
2022-09-20T01:33:07.859Z,6.69
2022-09-20T01:35:35.721Z,6.73
2022-09-20T01:38:22.584Z,6.63
2022-09-20T01:41:17.152Z,6.73
2022-09-20T01:44:03.110Z,5.87
2022-09-20T01:46:33.737Z,6.80
2022-09-20T01:49:26.457Z,6.59
2022-09-20T01:51:56.119Z,6.94
2022-09-20T01:54:22.644Z,6.94
2022-09-20T01:57:04.654Z,6.81
2022-09-20T02:00:12.828Z,6.79
2022-09-20T02:03:04.083Z,6.51
2022-09-20T02:05:50.236Z,6.16
2022-09-20T02:08:39.150Z,6.88
2022-09-20T02:11:12.156Z,6.90
2022-09-20T02:14:09.445Z,7.01
2022-09-20T02:16:43.474Z,6.41
2022-09-20T02:19:19.364Z,6.92
2022-09-20T02:22:10.421Z,7.05
2022-09-20T02:25:01.727Z,7.04
2022-09-20T02:27:40.695Z,7.14
2022-09-20T02:30:22.413Z,7.00
2022-09-20T02:32:54.981Z,6.98
2022-09-20T02:35:46.768Z,6.83
2022-09-20T02:38:35.187Z,7.12
2022-09-20T02:41:02.063Z,7.16
2022-09-20T02:43:48.511Z,7.16
2022-09-20T02:46:23.863Z,7.21
2022-09-20T02:49:08.174Z,7.17
2022-09-20T02:51:46.547Z,7.14
2022-09-20T02:54:45.298Z,7.25
2022-09-20T02:57:23.795Z,7.25
2022-09-20T03:00:13.745Z,7.18
2022-09-20T03:03:03.541Z,7.01
2022-09-20T03:05:33.181Z,6.67
2022-09-20T03:08:18.404Z,7.07
2022-09-20T03:10:50.404Z,7.21
2022-09-20T03:13:49.320Z,7.32
2022-09-20T03:16:27.375Z,6.90
2022-09-20T03:19:06.159Z,7.31
2022-09-20T03:21:57.144Z,7.24
2022-09-20T03:24:33.030Z,7.27
2022-09-20T03:27:24.447Z,7.31
2022-09-20T03:30:22.088Z,7.25
2022-09-20T03:33:02.205Z,7.37
2022-09-20T03:35:45.886Z,7.35
2022-09-20T03:38:22.494Z,7.31
2022-09-20T03:40:59.436Z,7.40
2022-09-20T03:43:44.663Z,7.25
2022-09-20T03:46:17.574Z,7.14
2022-09-20T03:49:12.572Z,7.09
2022-09-20T03:52:07.088Z,7.31
2022-09-20T03:54:52.442Z,7.30
2022-09-20T03:57:26.497Z,6.92
2022-09-20T03:59:56.153Z,7.05
2022-09-20T04:02:58.340Z,6.98
2022-09-20T04:05:49.558Z,6.89
2022-09-20T04:08:51.197Z,6.91
2022-09-20T04:11:25.694Z,6.90
2022-09-20T04:14:11.476Z,6.71
2022-09-20T04:16:51.247Z,6.54
2022-09-20T04:19:23.766Z,6.87
2022-09-20T04:22:01.125Z,7.27
2022-09-20T04:25:05.593Z,7.25
2022-09-20T04:27:39.154Z,6.91
2022-09-20T04:30:19.374Z,6.74
2022-09-20T04:33:01.469Z,7.25
2022-09-20T04:35:46.416Z,7.32
2022-09-20T04:38:18.197Z,7.04
2022-09-20T04:40:54.063Z,7.34
2022-09-20T04:43:35.906Z,7.34
2022-09-20T04:46:23.930Z,7.05
2022-09-20T04:49:21.202Z,7.27
2022-09-20T04:52:12.573Z,6.74
2022-09-20T04:55:00.592Z,7.12
2022-09-20T04:57:58.022Z,7.29
2022-09-20T05:00:35.045Z,6.91
2022-09-20T05:03:29.377Z,6.90
2022-09-20T05:06:33.425Z,7.32
2022-09-20T05:09:21.232Z,7.02
2022-09-20T05:12:10.431Z,7.43
2022-09-20T05:14:43.262Z,7.44
2022-09-20T05:17:38.242Z,7.10
2022-09-20T05:20:38.825Z,7.28
2022-09-20T05:23:29.832Z,7.03
2022-09-20T05:26:25.462Z,7.22
2022-09-20T05:28:55.414Z,7.15
2022-09-20T05:31:34.383Z,6.62
2022-09-20T05:34:20.135Z,7.14
2022-09-20T05:36:56.103Z,7.16
2022-09-20T05:39:38.246Z,7.21
2022-09-20T05:42:42.577Z,7.28
2022-09-20T05:45:47.800Z,7.35
2022-09-20T05:48:31.592Z,7.33
2022-09-20T05:51:04.055Z,7.37
2022-09-20T05:54:08.230Z,7.45
2022-09-20T05:56:41.998Z,6.84
2022-09-20T05:59:23.639Z,7.48
2022-09-20T06:01:53.258Z,7.39
2022-09-20T06:04:23.624Z,7.11
2022-09-20T06:06:59.747Z,7.07
2022-09-20T06:09:35.430Z,7.47
2022-09-20T06:12:27.389Z,7.54
2022-09-20T06:15:13.894Z,7.60
2022-09-20T06:18:35.033Z,7.60
2022-09-20T06:21:13.817Z,7.23
2022-09-20T06:23:40.635Z,7.13
2022-09-20T06:26:16.132Z,6.89
2022-09-20T06:28:49.989Z,7.42
2022-09-20T06:31:16.677Z,7.12
2022-09-20T06:33:50.903Z,6.92
2022-09-20T06:36:25.695Z,7.05
2022-09-20T06:39:32.348Z,7.46
2022-09-20T06:42:00.029Z,7.24
2022-09-20T06:44:26.963Z,7.23
2022-09-20T06:46:53.807Z,6.77
2022-09-20T06:49:23.068Z,7.64
2022-09-20T06:51:50.175Z,6.86
2022-09-20T06:54:20.290Z,7.45
2022-09-20T06:56:49.089Z,7.07
2022-09-20T06:59:15.662Z,7.55
2022-09-20T07:01:44.377Z,7.74
2022-09-20T07:04:11.090Z,6.95
2022-09-20T07:06:37.928Z,7.41
2022-09-20T07:09:05.365Z,7.54
2022-09-20T07:11:33.122Z,7.88
2022-09-20T07:13:59.731Z,7.52
2022-09-20T07:16:26.747Z,6.99
2022-09-20T07:18:53.564Z,7.44
2022-09-20T07:21:21.370Z,7.67
2022-09-20T07:23:48.365Z,7.66
2022-09-20T07:26:26.691Z,7.71
2022-09-20T07:28:54.157Z,7.21
2022-09-20T07:31:23.459Z,7.80
2022-09-20T07:33:50.478Z,7.58
2022-09-20T07:36:17.990Z,7.30
2022-09-20T07:38:50.217Z,7.95
2022-09-20T07:41:18.555Z,7.26
2022-09-20T07:43:46.113Z,7.17
2022-09-20T07:46:14.108Z,7.59
2022-09-20T07:48:43.120Z,7.15
2022-09-20T07:51:12.211Z,7.57
2022-09-20T07:53:40.094Z,8.13
2022-09-20T07:56:11.840Z,7.84
2022-09-20T07:58:39.276Z,7.75
2022-09-20T08:01:10.646Z,8.26
2022-09-20T08:03:37.414Z,7.95
2022-09-20T08:06:11.381Z,8.07
2022-09-20T08:08:39.972Z,7.83
2022-09-20T08:11:10.439Z,7.94
2022-09-20T08:16:29.989Z,8.14
2022-09-20T08:19:01.967Z,7.67
2022-09-20T08:21:33.852Z,6.73
2022-09-20T08:24:01.118Z,8.14
2022-09-20T08:26:29.315Z,7.95
2022-09-20T08:28:58.456Z,7.83
2022-09-20T08:31:27.674Z,7.89
2022-09-20T08:33:54.519Z,7.79
2022-09-20T08:36:25.709Z,7.87
2022-09-20T08:41:58.076Z,8.27
2022-09-20T08:44:35.029Z,8.24
2022-09-20T08:47:14.844Z,8.39
2022-09-20T08:49:46.128Z,7.97
2022-09-20T08:52:37.219Z,8.60
2022-09-20T08:55:15.768Z,8.30
2022-09-20T08:57:42.944Z,8.01
2022-09-20T09:00:19.388Z,8.79
2022-09-20T09:02:46.438Z,8.89
2022-09-20T09:05:33.277Z,8.59
2022-09-20T09:08:04.597Z,8.61
2022-09-20T09:10:42.649Z,8.84
2022-09-20T09:13:43.156Z,8.44
2022-09-20T09:16:14.965Z,8.67
2022-09-20T09:18:44.234Z,8.84
2022-09-20T09:21:20.688Z,9.08
2022-09-20T09:23:53.848Z,8.59
2022-09-20T09:26:25.290Z,8.79
2022-09-20T09:29:21.410Z,9.57
2022-09-20T09:31:50.751Z,9.49
2022-09-20T09:34:28.724Z,9.61
2022-09-20T09:36:56.293Z,9.49
2022-09-20T09:39:33.431Z,9.84
2022-09-20T09:42:00.186Z,9.51
2022-09-20T09:44:27.867Z,9.78
2022-09-20T09:46:56.444Z,9.56
2022-09-20T09:49:27.593Z,9.22
2022-09-20T09:52:02.354Z,9.42
2022-09-20T09:54:33.213Z,9.10
2022-09-20T09:57:05.343Z,8.86
2022-09-20T09:59:32.090Z,9.70
2022-09-20T10:02:38.050Z,9.80
2022-09-20T10:05:18.668Z,9.15
2022-09-20T10:08:23.474Z,9.66
2022-09-20T10:11:27.228Z,10.03
2022-09-20T10:14:21.545Z,10.13
2022-09-20T10:17:21.197Z,9.81
2022-09-20T10:20:23.494Z,9.77
2022-09-20T10:23:34.439Z,9.82
2022-09-20T10:25:58.160Z,9.92
2022-09-20T10:28:48.949Z,9.85
2022-09-20T10:31:26.024Z,10.43
2022-09-20T10:34:20.785Z,10.99
2022-09-20T10:37:30.605Z,11.02
2022-09-20T10:40:16.499Z,10.57
2022-09-20T10:42:54.197Z,10.95
2022-09-20T10:46:08.659Z,11.20
2022-09-20T10:48:48.081Z,11.28
2022-09-20T10:52:03.793Z,11.53
2022-09-20T10:54:56.026Z,10.82
2022-09-20T10:57:46.580Z,11.44
2022-09-20T11:00:51.450Z,11.72
2022-09-20T11:03:43.491Z,11.63
2022-09-20T11:06:37.933Z,11.18
2022-09-20T11:09:13.160Z,10.51
2022-09-20T11:11:45.612Z,10.88
2022-09-20T11:14:47.276Z,10.32
2022-09-20T11:17:42.094Z,10.70
2022-09-20T11:20:27.007Z,10.86
2022-09-20T11:23:00.116Z,11.05
2022-09-20T11:25:56.653Z,11.34
2022-09-20T11:28:31.444Z,11.43
2022-09-20T11:31:07.673Z,11.83
2022-09-20T11:33:44.865Z,11.82
2022-09-20T11:36:46.898Z,12.72
2022-09-20T11:39:27.918Z,12.16
2022-09-20T11:41:57.572Z,12.16
2022-09-20T11:44:24.259Z,12.41
2022-09-20T11:47:12.507Z,12.62
2022-09-20T11:50:27.613Z,12.60
2022-09-20T11:53:12.999Z,12.71
2022-09-20T11:55:42.598Z,12.62
2022-09-20T11:58:15.122Z,12.65
2022-09-20T12:00:45.160Z,11.14
2022-09-20T12:03:36.554Z,12.32
2022-09-20T12:06:06.577Z,11.90
2022-09-20T12:08:40.459Z,11.84
2022-09-20T12:11:09.121Z,11.75
2022-09-20T12:13:39.037Z,12.00
2022-09-20T12:16:09.322Z,10.96
2022-09-20T12:18:38.531Z,11.92
2022-09-20T12:21:23.495Z,11.63
2022-09-20T12:23:53.316Z,11.96
2022-09-20T12:26:22.765Z,12.30
2022-09-20T12:28:52.584Z,11.90
2022-09-20T12:31:19.358Z,11.77
2022-09-20T12:34:24.273Z,11.77
2022-09-20T12:36:50.925Z,12.41
2022-09-20T12:39:25.211Z,12.66
2022-09-20T12:41:58.393Z,12.83
2022-09-20T12:44:31.224Z,12.55
2022-09-20T12:47:00.420Z,12.17
2022-09-20T12:49:33.888Z,12.04
2022-09-20T12:52:00.917Z,10.55
2022-09-20T12:54:28.345Z,11.52
2022-09-20T12:56:56.044Z,11.12
2022-09-20T12:59:26.749Z,10.71
2022-09-20T13:01:53.649Z,11.10
2022-09-20T13:04:54.473Z,11.28
2022-09-20T13:07:43.721Z,10.78
2022-09-20T13:10:23.215Z,11.36
2022-09-20T13:12:54.613Z,11.36
2022-09-20T13:15:23.061Z,10.64
2022-09-20T13:17:55.414Z,11.40
2022-09-20T13:20:29.604Z,11.40
2022-09-20T13:23:00.419Z,10.91
2022-09-20T13:25:28.022Z,11.36
2022-09-20T13:28:21.071Z,11.42
2022-09-20T13:30:48.298Z,10.19
2022-09-20T13:33:23.800Z,11.49
2022-09-20T13:35:54.230Z,11.39
2022-09-20T13:38:22.720Z,11.37
2022-09-20T13:40:51.315Z,10.97
2022-09-20T13:43:24.109Z,11.39
2022-09-20T13:46:00.038Z,10.61
2022-09-20T13:48:28.763Z,10.54
2022-09-20T13:50:56.746Z,9.80
2022-09-20T13:53:40.565Z,10.25
2022-09-20T13:56:20.122Z,10.84
2022-09-20T13:58:48.170Z,10.25
2022-09-20T14:01:27.804Z,10.00
2022-09-20T14:03:57.933Z,10.28
2022-09-20T14:06:25.537Z,10.12
2022-09-20T14:08:52.549Z,10.21
2022-09-20T14:11:23.213Z,9.83
2022-09-20T14:13:53.065Z,9.69
2022-09-20T14:16:23.218Z,10.67
2022-09-20T14:18:50.710Z,10.49
2022-09-20T14:21:25.481Z,10.25
2022-09-20T14:24:24.596Z,11.41
2022-09-20T14:27:13.264Z,10.66
2022-09-20T14:29:42.524Z,10.72
2022-09-20T14:32:21.138Z,10.43
2022-09-20T14:34:58.284Z,10.69
2022-09-20T14:37:45.500Z,10.67
2022-09-20T14:40:26.323Z,10.30
2022-09-20T14:42:56.729Z,11.03
2022-09-20T14:45:25.527Z,11.59
2022-09-20T14:48:15.666Z,11.35
2022-09-20T14:50:44.999Z,11.33
2022-09-20T14:53:11.508Z,11.37
2022-09-20T14:55:40.052Z,10.52
2022-09-20T14:58:12.181Z,10.49
2022-09-20T15:00:52.755Z,10.11
2022-09-20T15:03:27.171Z,9.78
2022-09-20T15:05:54.231Z,9.50
2022-09-20T15:08:20.884Z,10.01
2022-09-20T15:10:47.562Z,10.16
2022-09-20T15:13:14.635Z,10.60
2022-09-20T15:15:41.919Z,10.39
2022-09-20T15:18:20.252Z,10.29
2022-09-20T15:20:48.776Z,9.92
2022-09-20T15:23:15.722Z,10.22
2022-09-20T15:25:42.709Z,9.80
2022-09-20T15:28:14.011Z,10.47
2022-09-20T15:30:41.088Z,10.09
2022-09-20T15:33:09.669Z,10.11
2022-09-20T15:35:36.500Z,9.91
2022-09-20T15:38:03.693Z,10.20
2022-09-20T15:40:30.587Z,10.21
2022-09-20T15:42:57.396Z,10.15
2022-09-20T15:45:24.106Z,9.88
2022-09-20T15:47:50.708Z,9.80
2022-09-20T15:50:17.655Z,8.82
2022-09-20T15:52:44.505Z,9.93
2022-09-20T15:55:11.851Z,10.98
2022-09-20T15:57:38.542Z,11.13
2022-09-20T16:00:06.014Z,10.19
2022-09-20T16:02:35.429Z,10.85
2022-09-20T16:05:02.176Z,10.94
2022-09-20T16:07:28.998Z,11.36
2022-09-20T16:09:56.751Z,10.77
2022-09-20T16:12:25.266Z,10.47
2022-09-20T16:14:52.115Z,9.85
2022-09-20T16:17:19.403Z,10.16
2022-09-20T16:19:46.099Z,9.75
2022-09-20T16:22:12.717Z,9.14
2022-09-20T16:24:39.636Z,8.05
2022-09-20T16:27:07.865Z,9.74
2022-09-20T16:29:34.688Z,9.99
2022-09-20T16:32:01.941Z,9.78
2022-09-20T16:34:31.292Z,10.27
2022-09-20T16:37:03.110Z,10.02
2022-09-20T16:39:31.089Z,10.40
2022-09-20T16:42:02.473Z,10.62
2022-09-20T16:44:29.333Z,10.58
2022-09-20T16:46:55.891Z,10.82
2022-09-20T16:49:22.627Z,11.03
2022-09-20T16:51:49.222Z,10.75
2022-09-20T16:54:17.349Z,11.00
2022-09-20T16:56:46.589Z,9.95
2022-09-20T16:59:15.129Z,10.68
2022-09-20T17:01:42.885Z,10.82
2022-09-20T17:04:10.547Z,8.93
2022-09-20T17:06:38.110Z,10.08
2022-09-20T17:09:06.386Z,10.04
2022-09-20T17:11:39.834Z,9.24
2022-09-20T17:14:07.709Z,10.29
2022-09-20T17:16:36.583Z,10.39
2022-09-20T17:19:09.448Z,10.48
2022-09-20T17:21:38.344Z,10.17
2022-09-20T17:24:06.323Z,10.45
2022-09-20T17:26:40.954Z,10.32
2022-09-20T17:29:09.922Z,8.59
2022-09-20T17:31:39.421Z,8.51
2022-09-20T17:34:08.434Z,9.86
2022-09-20T17:36:43.653Z,10.09
2022-09-20T17:39:13.284Z,9.92
2022-09-20T17:41:42.179Z,9.55
2022-09-20T17:44:09.068Z,9.50
2022-09-20T17:46:37.570Z,10.03
2022-09-20T17:49:09.464Z,9.99
2022-09-20T17:51:42.430Z,9.61
2022-09-20T17:54:10.337Z,9.57
2022-09-20T17:56:36.917Z,8.76
2022-09-20T17:59:05.559Z,9.30
2022-09-20T18:01:35.312Z,9.39
2022-09-20T18:04:03.014Z,8.82
2022-09-20T18:06:32.389Z,9.09
2022-09-20T18:09:01.142Z,8.90
2022-09-20T18:11:39.554Z,9.11
2022-09-20T18:14:08.629Z,8.73
2022-09-20T18:16:35.335Z,8.44
2022-09-20T18:19:02.213Z,7.84
2022-09-20T18:21:31.377Z,7.58
2022-09-20T18:23:58.075Z,8.73
2022-09-20T18:26:27.740Z,8.50
2022-09-20T18:29:04.737Z,8.61
2022-09-20T18:31:43.062Z,8.53
2022-09-20T18:34:18.808Z,8.48
2022-09-20T18:36:51.016Z,8.42
2022-09-20T18:39:19.238Z,7.82
2022-09-20T18:41:45.902Z,8.40
2022-09-20T18:44:12.961Z,8.25
2022-09-20T18:46:39.905Z,8.00
2022-09-20T18:49:08.108Z,8.07
2022-09-20T18:51:39.451Z,8.22
2022-09-20T18:54:08.584Z,6.79
2022-09-20T18:56:36.625Z,8.09
2022-09-20T18:59:06.145Z,8.39
2022-09-20T19:01:51.270Z,7.74
2022-09-20T19:04:39.694Z,7.83
2022-09-20T19:07:29.850Z,7.59
2022-09-20T19:09:59.613Z,7.69
2022-09-20T19:12:44.989Z,8.09
2022-09-20T19:15:37.017Z,7.99
2022-09-20T19:18:40.062Z,7.05
2022-09-20T19:21:06.719Z,8.04
2022-09-20T19:23:50.498Z,8.02
2022-09-20T19:26:25.652Z,7.40
2022-09-20T19:29:00.227Z,7.43
2022-09-20T19:31:29.558Z,7.66
2022-09-20T19:33:58.790Z,7.96
2022-09-20T19:36:30.315Z,7.74
2022-09-20T19:39:12.070Z,7.84
2022-09-20T19:41:50.868Z,7.85
2022-09-20T19:44:42.916Z,7.80
2022-09-20T19:47:55.160Z,7.77
2022-09-20T19:50:52.514Z,7.77
2022-09-20T19:53:22.494Z,7.46
2022-09-20T19:55:56.027Z,6.50
2022-09-20T19:58:23.126Z,7.54
2022-09-20T20:00:50.228Z,7.26
2022-09-20T20:03:18.527Z,7.32
2022-09-20T20:05:56.501Z,6.08
2022-09-20T20:08:51.768Z,6.69
2022-09-20T20:11:37.354Z,7.23
2022-09-20T20:14:45.869Z,6.98
2022-09-20T20:17:21.971Z,7.00
2022-09-20T20:20:04.247Z,6.89
2022-09-20T20:23:01.901Z,6.84
2022-09-20T20:25:50.257Z,6.31
2022-09-20T20:28:17.098Z,6.14
2022-09-20T20:30:43.699Z,5.92
2022-09-20T20:33:17.376Z,5.98
2022-09-20T20:35:44.208Z,5.99
2022-09-20T20:38:10.974Z,6.21
2022-09-20T20:40:38.396Z,6.41
2022-09-20T20:43:05.301Z,6.29
2022-09-20T20:45:32.090Z,5.83
2022-09-20T20:47:59.308Z,6.27
2022-09-20T20:50:26.983Z,6.12
2022-09-20T20:52:56.878Z,6.00
2022-09-20T20:55:24.173Z,6.15
2022-09-20T20:57:55.471Z,6.30
2022-09-20T21:00:22.141Z,5.99
2022-09-20T21:02:48.764Z,5.81
2022-09-20T21:05:15.473Z,5.87
2022-09-20T21:07:42.028Z,6.04
2022-09-20T21:10:09.578Z,5.26
2022-09-20T21:12:36.143Z,5.66
2022-09-20T21:15:03.261Z,6.35
2022-09-20T21:17:35.255Z,6.34
2022-09-20T21:20:03.593Z,5.12
2022-09-20T21:22:30.264Z,5.03
2022-09-20T21:24:57.520Z,5.69
2022-09-20T21:27:24.156Z,5.84
2022-09-20T21:29:51.234Z,5.77
2022-09-20T21:32:18.066Z,5.29
2022-09-20T21:34:44.935Z,5.73
2022-09-20T21:37:11.819Z,4.28
2022-09-20T21:39:39.011Z,4.02
2022-09-20T21:42:05.757Z,5.87
2022-09-20T21:44:32.894Z,5.37
2022-09-20T21:47:05.699Z,5.14
2022-09-20T21:49:33.920Z,5.13
2022-09-20T21:52:00.660Z,5.05
2022-09-20T21:54:27.430Z,4.94
2022-09-20T21:56:57.263Z,5.24
2022-09-20T21:59:24.304Z,3.12
2022-09-20T22:01:50.983Z,5.14
2022-09-20T22:04:17.940Z,5.21
2022-09-20T22:06:45.344Z,5.37
2022-09-20T22:09:16.971Z,5.50
2022-09-20T22:11:47.557Z,4.73
2022-09-20T22:14:15.858Z,5.16
2022-09-20T22:16:44.034Z,5.12
2022-09-20T22:19:13.512Z,5.13
2022-09-20T22:21:42.911Z,4.81
2022-09-20T22:24:11.543Z,4.83
2022-09-20T22:26:40.750Z,5.10
2022-09-20T22:29:08.393Z,4.68
2022-09-20T22:31:38.122Z,4.93
2022-09-20T22:34:06.833Z,5.21
2022-09-20T22:36:36.517Z,5.40
2022-09-20T22:39:05.727Z,5.11
2022-09-20T22:41:33.036Z,4.98
2022-09-20T22:43:59.628Z,5.40
2022-09-20T22:46:29.310Z,5.53
2022-09-20T22:48:56.703Z,5.26
2022-09-20T22:51:26.845Z,5.11
2022-09-20T22:53:53.863Z,5.06
2022-09-20T22:56:28.537Z,5.23
2022-09-20T22:59:00.563Z,5.21
2022-09-20T23:01:29.954Z,5.10
2022-09-20T23:04:11.340Z,4.13
2022-09-20T23:06:40.831Z,4.72
2022-09-20T23:09:10.291Z,4.52
2022-09-20T23:11:38.275Z,4.88
2022-09-20T23:14:06.072Z,5.12
2022-09-20T23:16:36.763Z,4.58
2022-09-20T23:19:05.955Z,5.16
2022-09-20T23:21:34.122Z,4.74
2022-09-20T23:24:02.743Z,4.85
2022-09-20T23:26:31.912Z,4.53
2022-09-20T23:29:25.697Z,4.90
2022-09-20T23:31:52.522Z,4.62
2022-09-20T23:34:19.080Z,5.09
2022-09-20T23:36:46.612Z,5.17
2022-09-20T23:39:14.190Z,5.25
2022-09-20T23:41:40.968Z,4.53
2022-09-20T23:44:08.315Z,5.10
2022-09-20T23:46:35.409Z,4.78
2022-09-20T23:49:02.521Z,4.67
2022-09-20T23:51:29.358Z,4.25
2022-09-20T23:53:56.237Z,4.87
2022-09-20T23:56:23.293Z,4.84
2022-09-20T23:58:50.784Z,4.95
